Time;durP1;ratioP1;P1;durP2;ratioP2;P2;SDS_P1;SDS_P2;PMS_P1;PMS_P2;Temp;Humidity;BMP_temperature;BMP_pressure;BME280_temperature;BME280_humidity;BME280_pressure;Samples;Min_cycle;Max_cycle;Signal;HPM_P1;HPM_P2
2023/09/26 00:02:01;;;;;;;;;;;15.90;99.90;;;;;;5046659;28;19925;-65
2023/09/26 00:04:26;;;;;;;;;;;15.90;99.90;;;;;;5080227;28;20129;-66
2023/09/26 00:06:54;;;;;;;;;;;15.90;99.90;;;;;;5080533;28;19924;-66
2023/09/26 00:09:21;;;;;;;;;;;15.90;99.90;;;;;;5030623;28;19986;-66
2023/09/26 00:11:46;;;;;;;;;;;15.90;99.90;;;;;;5080721;28;20179;-65
2023/09/26 00:14:12;;;;;;;;;;;15.90;99.90;;;;;;5046852;28;19928;-66
2023/09/26 00:16:38;;;;;;;;;;;15.90;99.90;;;;;;5081054;28;20010;-66
2023/09/26 00:19:03;;;;;;;;;;;15.90;99.90;;;;;;5045238;28;19966;-66
2023/09/26 00:21:29;;;;;;;;;;;15.90;99.90;;;;;;5063678;28;19924;-66
2023/09/26 00:23:55;;;;;;;;;;;15.80;99.90;;;;;;5046830;28;20305;-65
2023/09/26 00:26:21;;;;;;;;;;;15.80;99.90;;;;;;5061735;28;20131;-66
2023/09/26 00:28:46;;;;;;;;;;;15.80;99.90;;;;;;5030408;28;20208;-66
2023/09/26 00:31:12;;;;;;;;;;;15.70;99.90;;;;;;5047979;28;19924;-66
2023/09/26 00:33:38;;;;;;;;;;;15.70;99.90;;;;;;5030702;28;20267;-65
2023/09/26 00:36:07;;;;;;;;;;;15.70;99.90;;;;;;5048067;28;19931;-66
2023/09/26 00:38:33;;;;;;;;;;;15.70;99.90;;;;;;5047332;28;20441;-67
2023/09/26 00:40:59;;;;;;;;;;;15.70;99.90;;;;;;5030050;28;20007;-66
2023/09/26 00:43:25;;;;;;;;;;;15.60;99.90;;;;;;5062667;28;20244;-66
2023/09/26 00:45:51;;;;;;;;;;;15.60;99.90;;;;;;5077930;28;20406;-66
2023/09/26 00:48:17;;;;;;;;;;;15.70;99.90;;;;;;5079821;28;20172;-66
2023/09/26 00:50:44;;;;;;;;;;;15.60;99.90;;;;;;5030548;28;20301;-67
2023/09/26 00:53:09;;;;;;;;;;;15.60;99.90;;;;;;5062309;28;20060;-65
2023/09/26 00:55:35;;;;;;;;;;;15.60;99.90;;;;;;5063747;28;19928;-66
2023/09/26 00:58:01;;;;;;;;;;;15.60;99.90;;;;;;5046979;28;20358;-66
2023/09/26 01:00:27;;;;;;;;;;;15.60;99.90;;;;;;5030912;28;19959;-67
2023/09/26 01:02:53;;;;;;;;;;;15.60;99.90;;;;;;5048021;28;19928;-67
2023/09/26 01:05:19;;;;;;;;;;;15.50;99.90;;;;;;5056409;28;20281;-67
2023/09/26 01:07:44;;;;;;;;;;;15.50;99.90;;;;;;5088842;28;19934;-67
2023/09/26 01:10:10;;;;;;;;;;;15.50;99.90;;;;;;5055611;28;19985;-66
2023/09/26 01:12:36;;;;;;;;;;;15.50;99.90;;;;;;5054744;28;19931;-67
2023/09/26 01:15:02;;;;;;;;;;;15.50;99.90;;;;;;5088931;28;19972;-66
2023/09/26 01:17:32;;;;;;;;;;;15.50;99.90;;;;;;5055470;28;20305;-66
2023/09/26 01:19:57;;;;;;;;;;;15.50;99.90;;;;;;5055747;28;19964;-67
2023/09/26 01:22:26;;;;;;;;;;;15.50;99.90;;;;;;5091028;28;20412;-66
2023/09/26 01:24:52;;;;;;;;;;;15.50;99.90;;;;;;5059909;28;20013;-66
2023/09/26 01:27:17;;;;;;;;;;;15.50;99.90;;;;;;5059442;28;19998;-69
2023/09/26 01:29:45;;;;;;;;;;;15.50;99.90;;;;;;5058960;28;20243;-66
2023/09/26 01:32:11;;;;;;;;;;;15.40;99.90;;;;;;5059038;28;19925;-67
2023/09/26 01:34:36;;;;;;;;;;;15.40;99.90;;;;;;5091340;28;20025;-66
2023/09/26 01:37:02;;;;;;;;;;;15.40;99.90;;;;;;5041196;28;20429;-67
2023/09/26 01:39:29;;;;;;;;;;;15.30;99.90;;;;;;5057942;28;19955;-66
2023/09/26 01:41:55;;;;;;;;;;;15.30;99.90;;;;;;5059091;28;20195;-68
2023/09/26 01:44:20;;;;;;;;;;;15.30;99.90;;;;;;5090820;28;19928;-66
2023/09/26 01:46:46;;;;;;;;;;;15.20;99.90;;;;;;5075380;28;20021;-66
2023/09/26 01:49:12;;;;;;;;;;;15.10;99.90;;;;;;5059899;28;19928;-66
2023/09/26 01:51:38;;;;;;;;;;;15.10;99.90;;;;;;5042870;28;19970;-66
2023/09/26 01:54:04;;;;;;;;;;;15.00;99.90;;;;;;5075030;28;20396;-67
2023/09/26 01:56:30;;;;;;;;;;;14.90;99.90;;;;;;5092253;28;19954;-66
2023/09/26 01:58:56;;;;;;;;;;;14.90;99.90;;;;;;5058744;28;19939;-68
2023/09/26 02:01:22;;;;;;;;;;;14.90;99.90;;;;;;5076206;28;19937;-66
2023/09/26 02:03:47;;;;;;;;;;;14.90;99.90;;;;;;5091872;28;19975;-66
2023/09/26 02:06:13;;;;;;;;;;;14.90;99.90;;;;;;5059151;28;19932;-67
2023/09/26 02:08:38;;;;;;;;;;;14.90;99.90;;;;;;5059183;28;20058;-66
2023/09/26 02:11:04;;;;;;;;;;;14.90;99.90;;;;;;5039113;28;19920;-66
2023/09/26 02:13:29;;;;;;;;;;;14.90;99.90;;;;;;5059151;28;19933;-66
2023/09/26 02:15:55;;;;;;;;;;;14.90;99.90;;;;;;5060105;28;19974;-67
2023/09/26 02:18:20;;;;;;;;;;;14.80;99.90;;;;;;5075040;28;19935;-67
2023/09/26 02:20:46;;;;;;;;;;;14.80;99.90;;;;;;5052549;28;20011;-67
2023/09/26 02:23:11;;;;;;;;;;;14.80;99.90;;;;;;5049645;28;19955;-67
2023/09/26 02:25:38;;;;;;;;;;;14.80;99.90;;;;;;5083568;28;20180;-67
2023/09/26 02:28:04;;;;;;;;;;;14.70;99.90;;;;;;5023199;28;20474;-67
2023/09/26 02:30:29;;;;;;;;;;;14.70;99.90;;;;;;5033197;28;20008;-68
2023/09/26 02:32:55;;;;;;;;;;;14.70;99.90;;;;;;5082085;28;20160;-67
2023/09/26 02:35:21;;;;;;;;;;;14.70;99.90;;;;;;5049619;28;20001;-68
2023/09/26 02:37:47;;;;;;;;;;;14.60;99.90;;;;;;5046918;28;19928;-65
2023/09/26 02:40:13;;;;;;;;;;;14.60;99.90;;;;;;5082536;28;19931;-65
2023/09/26 02:42:39;;;;;;;;;;;14.60;99.90;;;;;;5048831;28;19927;-65
2023/09/26 02:45:05;;;;;;;;;;;14.60;99.90;;;;;;5082697;28;19934;-65
2023/09/26 02:47:30;;;;;;;;;;;14.70;99.90;;;;;;5065661;28;19924;-65
2023/09/26 02:49:56;;;;;;;;;;;14.60;99.90;;;;;;5050893;28;19925;-65
2023/09/26 02:52:22;;;;;;;;;;;14.60;99.90;;;;;;5082466;28;19931;-65
2023/09/26 02:54:48;;;;;;;;;;;14.60;99.90;;;;;;5082050;28;19928;-65
2023/09/26 02:57:14;;;;;;;;;;;14.60;99.90;;;;;;5064899;28;19924;-65
2023/09/26 02:59:40;;;;;;;;;;;14.60;99.90;;;;;;5049320;28;19924;-64
2023/09/26 03:02:06;;;;;;;;;;;14.50;99.90;;;;;;5064862;28;19954;-65
2023/09/26 03:04:31;;;;;;;;;;;14.50;99.90;;;;;;5082023;28;19932;-65
2023/09/26 03:06:57;;;;;;;;;;;14.40;99.90;;;;;;5047667;28;20302;-66
2023/09/26 03:09:22;;;;;;;;;;;14.40;99.90;;;;;;5062258;28;20201;-65
2023/09/26 03:11:48;;;;;;;;;;;14.40;99.90;;;;;;5063382;28;19928;-65
2023/09/26 03:14:14;;;;;;;;;;;14.40;99.90;;;;;;5013095;28;19928;-65
2023/09/26 03:16:40;;;;;;;;;;;14.40;99.90;;;;;;5022546;28;19990;-65
2023/09/26 03:19:06;;;;;;;;;;;14.30;99.90;;;;;;5064619;28;19935;-65
2023/09/26 03:21:32;;;;;;;;;;;14.30;99.90;;;;;;5046789;28;19936;-65
2023/09/26 03:23:57;;;;;;;;;;;14.20;99.90;;;;;;5042354;28;20183;-65
2023/09/26 03:26:23;;;;;;;;;;;14.10;99.90;;;;;;5046107;28;19935;-64
2023/09/26 03:28:48;;;;;;;;;;;14.10;99.90;;;;;;5045465;28;19929;-64
2023/09/26 03:31:14;;;;;;;;;;;14.00;99.90;;;;;;5048403;28;19925;-64
2023/09/26 03:33:40;;;;;;;;;;;13.90;99.90;;;;;;5046514;28;19939;-64
2023/09/26 03:36:06;;;;;;;;;;;13.80;99.90;;;;;;5046290;28;20023;-66
2023/09/26 03:38:31;;;;;;;;;;;13.80;99.90;;;;;;5060032;28;20301;-64
2023/09/26 03:40:57;;;;;;;;;;;13.70;99.90;;;;;;5046318;28;20412;-65
2023/09/26 03:43:24;;;;;;;;;;;13.70;99.90;;;;;;5029151;28;19924;-65
2023/09/26 03:45:49;;;;;;;;;;;13.60;99.90;;;;;;5061680;28;19978;-64
2023/09/26 03:48:15;;;;;;;;;;;13.50;99.90;;;;;;5046036;28;19925;-64
2023/09/26 03:50:41;;;;;;;;;;;13.40;99.90;;;;;;5061736;28;19927;-64
2023/09/26 03:53:07;;;;;;;;;;;13.30;99.90;;;;;;5045127;28;20000;-64
2023/09/26 03:55:32;;;;;;;;;;;13.20;99.90;;;;;;5047265;28;20024;-64
2023/09/26 03:57:58;;;;;;;;;;;13.10;99.90;;;;;;5078527;28;20011;-64
2023/09/26 04:00:26;;;;;;;;;;;13.10;99.90;;;;;;5045845;28;20290;-64
2023/09/26 04:02:54;;;;;;;;;;;13.10;99.90;;;;;;5078704;28;20102;-64
2023/09/26 04:05:20;;;;;;;;;;;13.00;99.90;;;;;;5046453;28;20320;-64
2023/09/26 04:07:45;;;;;;;;;;;13.00;99.90;;;;;;5028400;28;19925;-65
2023/09/26 04:10:11;;;;;;;;;;;12.90;99.90;;;;;;5044982;28;20251;-64
2023/09/26 04:12:36;;;;;;;;;;;12.90;99.90;;;;;;5044896;28;19928;-64
2023/09/26 04:15:02;;;;;;;;;;;12.90;99.90;;;;;;5061112;28;19929;-64
2023/09/26 04:17:28;;;;;;;;;;;12.90;99.90;;;;;;5046263;28;19981;-64
2023/09/26 04:19:54;;;;;;;;;;;12.80;99.90;;;;;;5046643;28;19929;-64
2023/09/26 04:22:19;;;;;;;;;;;12.80;99.90;;;;;;5046773;28;19935;-64
2023/09/26 04:24:45;;;;;;;;;;;12.80;99.90;;;;;;5045387;28;19983;-64
2023/09/26 04:27:10;;;;;;;;;;;12.70;99.90;;;;;;5045419;28;19935;-64
2023/09/26 04:29:36;;;;;;;;;;;12.70;99.90;;;;;;5046433;28;19936;-64
2023/09/26 04:32:02;;;;;;;;;;;12.60;99.90;;;;;;5045833;28;21142;-64
2023/09/26 04:34:29;;;;;;;;;;;12.60;99.90;;;;;;5077806;28;19928;-64
2023/09/26 04:36:54;;;;;;;;;;;12.50;99.90;;;;;;5046525;28;19924;-64
2023/09/26 04:39:20;;;;;;;;;;;12.50;99.90;;;;;;5046021;28;20531;-65
2023/09/26 04:41:45;;;;;;;;;;;12.50;99.90;;;;;;5024493;28;20410;-65
2023/09/26 04:44:11;;;;;;;;;;;12.40;99.90;;;;;;5060556;28;20031;-65
2023/09/26 04:46:37;;;;;;;;;;;12.30;99.90;;;;;;5061194;28;20005;-65
2023/09/26 04:49:02;;;;;;;;;;;12.30;99.90;;;;;;5045457;28;20421;-65
2023/09/26 04:51:28;;;;;;;;;;;12.30;99.90;;;;;;5045763;28;20143;-65
2023/09/26 04:53:53;;;;;;;;;;;12.30;99.90;;;;;;5045384;28;20297;-65
2023/09/26 04:56:19;;;;;;;;;;;12.30;99.90;;;;;;5030460;28;20623;-64
2023/09/26 04:58:45;;;;;;;;;;;12.40;99.90;;;;;;5064540;28;19928;-64
2023/09/26 05:01:11;;;;;;;;;;;12.40;99.90;;;;;;5049038;28;19957;-65
2023/09/26 05:03:37;;;;;;;;;;;12.40;99.90;;;;;;5032565;28;20370;-66
2023/09/26 05:06:04;;;;;;;;;;;12.40;99.90;;;;;;5066314;28;20182;-65
2023/09/26 05:08:29;;;;;;;;;;;12.30;99.90;;;;;;5051362;28;21051;-64
2023/09/26 05:10:55;;;;;;;;;;;12.30;99.90;;;;;;5081957;28;19934;-65
2023/09/26 05:13:20;;;;;;;;;;;12.30;99.90;;;;;;5049013;28;19963;-64
2023/09/26 05:15:46;;;;;;;;;;;12.30;99.90;;;;;;5049634;28;19951;-66
2023/09/26 05:18:11;;;;;;;;;;;12.30;99.90;;;;;;5032743;28;20205;-67
2023/09/26 05:20:37;;;;;;;;;;;12.30;99.90;;;;;;5049426;28;20286;-67
2023/09/26 05:23:03;;;;;;;;;;;12.30;99.90;;;;;;5047023;28;19932;-68
2023/09/26 05:25:29;;;;;;;;;;;12.30;99.90;;;;;;5049187;28;19931;-67
2023/09/26 05:27:54;;;;;;;;;;;12.30;99.90;;;;;;5015456;28;20083;-67
2023/09/26 05:30:20;;;;;;;;;;;12.30;99.90;;;;;;5015028;28;21646;-67
2023/09/26 05:32:46;;;;;;;;;;;12.40;99.90;;;;;;5064928;28;19924;-67
2023/09/26 05:35:11;;;;;;;;;;;12.30;99.90;;;;;;5064185;28;19943;-67
2023/09/26 05:37:37;;;;;;;;;;;12.40;99.90;;;;;;5049637;28;19920;-67
2023/09/26 05:40:06;;;;;;;;;;;12.40;99.90;;;;;;5082784;28;19968;-66
2023/09/26 05:42:35;;;;;;;;;;;12.40;99.90;;;;;;5049323;28;20191;-65
2023/09/26 05:45:05;;;;;;;;;;;12.40;99.90;;;;;;5049871;28;20129;-65
2023/09/26 05:47:30;;;;;;;;;;;12.50;99.90;;;;;;5050879;28;19931;-65
2023/09/26 05:49:56;;;;;;;;;;;12.50;99.90;;;;;;5054214;28;19924;-66
2023/09/26 05:52:23;;;;;;;;;;;12.50;99.90;;;;;;5050700;28;21046;-66
2023/09/26 05:54:49;;;;;;;;;;;12.50;99.90;;;;;;5036628;28;19928;-66
2023/09/26 05:57:15;;;;;;;;;;;12.50;99.90;;;;;;5053012;28;19936;-66
2023/09/26 05:59:40;;;;;;;;;;;12.50;99.90;;;;;;5066438;28;20227;-66
2023/09/26 06:02:11;;;;;;;;;;;12.60;99.90;;;;;;5068405;28;20330;-64
2023/09/26 06:04:39;;;;;;;;;;;12.60;99.90;;;;;;5035387;28;20059;-66
2023/09/26 06:07:05;;;;;;;;;;;12.70;99.90;;;;;;5020358;28;20617;-65
2023/09/26 06:09:31;;;;;;;;;;;12.80;99.90;;;;;;5070160;28;19950;-65
2023/09/26 06:11:56;;;;;;;;;;;12.80;99.90;;;;;;5083519;28;19979;-65
2023/09/26 06:14:22;;;;;;;;;;;12.90;99.90;;;;;;5051723;28;19933;-66
2023/09/26 06:16:47;;;;;;;;;;;13.00;99.90;;;;;;5050414;28;20457;-65
2023/09/26 06:19:13;;;;;;;;;;;13.00;99.90;;;;;;5051769;28;19931;-66
2023/09/26 06:21:38;;;;;;;;;;;13.10;99.90;;;;;;5048944;28;19924;-66
2023/09/26 06:24:06;;;;;;;;;;;13.20;99.90;;;;;;5080951;28;19928;-66
2023/09/26 06:26:32;;;;;;;;;;;13.30;99.90;;;;;;5051511;28;19970;-66
2023/09/26 06:28:58;;;;;;;;;;;13.40;99.90;;;;;;5050897;28;19928;-65
2023/09/26 06:31:23;;;;;;;;;;;13.40;99.90;;;;;;5050262;28;20023;-66
2023/09/26 06:33:49;;;;;;;;;;;13.50;99.90;;;;;;5048419;28;20413;-66
2023/09/26 06:36:17;;;;;;;;;;;13.60;99.90;;;;;;5047942;28;20001;-65
2023/09/26 06:38:43;;;;;;;;;;;13.60;99.90;;;;;;5048368;28;20268;-67
2023/09/26 06:41:10;;;;;;;;;;;13.80;99.90;;;;;;5049486;28;19932;-67
2023/09/26 06:43:37;;;;;;;;;;;13.90;99.90;;;;;;5049980;28;19935;-66
2023/09/26 06:46:06;;;;;;;;;;;14.10;99.90;;;;;;5047803;28;20010;-67
2023/09/26 06:48:34;;;;;;;;;;;14.40;99.90;;;;;;5082815;28;19924;-67
2023/09/26 06:51:01;;;;;;;;;;;14.60;99.90;;;;;;5048194;28;20218;-67
2023/09/26 06:53:26;;;;;;;;;;;14.80;99.90;;;;;;5052406;28;19993;-67
2023/09/26 06:55:58;;;;;;;;;;;14.90;99.90;;;;;;5068567;28;19924;-66
2023/09/26 06:58:24;;;;;;;;;;;14.90;99.90;;;;;;5066521;28;20491;-69
2023/09/26 07:00:50;;;;;;;;;;;14.90;99.90;;;;;;5079468;28;19921;-66
2023/09/26 07:03:15;;;;;;;;;;;15.00;99.90;;;;;;5063788;28;19933;-65
2023/09/26 07:05:41;;;;;;;;;;;15.20;99.90;;;;;;5063786;28;19951;-66
2023/09/26 07:08:06;;;;;;;;;;;15.40;99.90;;;;;;5095327;28;19932;-66
2023/09/26 07:10:35;;;;;;;;;;;15.70;99.90;;;;;;5048005;28;19959;-67
2023/09/26 07:13:01;;;;;;;;;;;16.00;99.90;;;;;;5096627;28;19924;-66
2023/09/26 07:15:28;;;;;;;;;;;16.40;99.90;;;;;;5079425;28;19931;-66
2023/09/26 07:17:54;;;;;;;;;;;16.60;99.90;;;;;;5095073;28;19930;-66
2023/09/26 07:20:21;;;;;;;;;;;16.90;99.90;;;;;;5049850;28;19921;-65
2023/09/26 07:22:47;;;;;;;;;;;17.10;99.90;;;;;;5059632;28;20044;-65
2023/09/26 07:25:12;;;;;;;;;;;17.40;99.90;;;;;;5041345;28;20417;-64
2023/09/26 07:27:38;;;;;;;;;;;17.70;99.90;;;;;;5044260;28;20386;-66
2023/09/26 07:30:04;;;;;;;;;;;17.80;99.90;;;;;;5058788;28;20015;-67
2023/09/26 07:32:30;;;;;;;;;;;18.20;99.90;;;;;;5062583;28;20612;-67
2023/09/26 07:34:56;;;;;;;;;;;18.40;99.90;;;;;;5049194;28;19938;-67
2023/09/26 07:37:22;;;;;;;;;;;18.60;99.90;;;;;;5080816;28;19925;-66
2023/09/26 07:39:51;;;;;;;;;;;18.70;99.90;;;;;;5031759;28;20026;-67
2023/09/26 07:42:20;;;;;;;;;;;18.50;99.90;;;;;;5047952;28;19955;-67
2023/09/26 07:44:46;;;;;;;;;;;18.40;99.90;;;;;;5046669;28;19990;-66
2023/09/26 07:47:12;;;;;;;;;;;18.30;99.90;;;;;;5047310;28;20043;-66
2023/09/26 07:49:37;;;;;;;;;;;18.40;99.90;;;;;;5046532;28;19926;-66
2023/09/26 07:52:03;;;;;;;;;;;18.50;99.90;;;;;;5047046;28;20357;-66
2023/09/26 07:54:29;;;;;;;;;;;18.50;99.90;;;;;;5080329;28;20344;-67
2023/09/26 07:56:54;;;;;;;;;;;18.20;99.90;;;;;;5063533;28;19929;-67
2023/09/26 07:59:21;;;;;;;;;;;17.90;99.90;;;;;;5062438;28;20621;-67
2023/09/26 08:01:47;;;;;;;;;;;17.80;99.90;;;;;;5048683;28;19940;-67
2023/09/26 08:04:12;;;;;;;;;;;17.70;99.90;;;;;;5046189;28;19986;-67
2023/09/26 08:06:38;;;;;;;;;;;17.90;99.90;;;;;;5046679;28;19932;-67
2023/09/26 08:09:04;;;;;;;;;;;18.00;99.90;;;;;;5046775;28;20021;-67
2023/09/26 08:11:29;;;;;;;;;;;18.30;99.90;;;;;;5049342;28;19973;-67
2023/09/26 08:13:56;;;;;;;;;;;18.60;99.90;;;;;;5046646;28;20023;-67
2023/09/26 08:16:22;;;;;;;;;;;18.70;99.90;;;;;;5063279;28;19975;-67
2023/09/26 08:18:49;;;;;;;;;;;19.00;99.90;;;;;;5046840;28;19967;-67
2023/09/26 08:21:14;;;;;;;;;;;19.00;99.10;;;;;;5063362;28;19932;-66
2023/09/26 08:23:40;;;;;;;;;;;19.00;99.90;;;;;;5048119;28;19924;-66
2023/09/26 08:26:06;;;;;;;;;;;18.90;99.90;;;;;;5047148;28;20533;-66
2023/09/26 08:28:32;;;;;;;;;;;19.20;99.90;;;;;;5047696;28;19950;-66
2023/09/26 08:31:07;;;;;;;;;;;19.50;99.90;;;;;;5047820;28;19921;-66
2023/09/26 08:33:33;;;;;;;;;;;19.80;92.20;;;;;;5046396;28;20054;-67
2023/09/26 08:35:58;;;;;;;;;;;20.10;86.50;;;;;;5046310;28;19928;-67
2023/09/26 08:38:24;;;;;;;;;;;20.10;79.80;;;;;;5079932;28;20278;-67
2023/09/26 08:40:50;;;;;;;;;;;19.90;75.30;;;;;;5046938;28;20176;-67
2023/09/26 08:43:21;;;;;;;;;;;19.70;92.10;;;;;;5025555;28;19924;-66
2023/09/26 08:45:46;;;;;;;;;;;19.60;99.90;;;;;;5045862;28;20163;-66
2023/09/26 08:48:12;;;;;;;;;;;19.50;99.90;;;;;;5045615;28;20250;-66
2023/09/26 08:50:38;;;;;;;;;;;19.40;99.90;;;;;;5046602;28;20015;-67
2023/09/26 08:53:04;;;;;;;;;;;19.50;99.90;;;;;;5079343;28;21030;-67
2023/09/26 08:55:29;;;;;;;;;;;19.60;99.90;;;;;;5029820;28;19990;-66
2023/09/26 08:57:55;;;;;;;;;;;19.50;99.90;;;;;;5045931;28;20412;-67
2023/09/26 09:00:21;;;;;;;;;;;19.60;99.90;;;;;;5046543;28;19924;-67
2023/09/26 09:02:48;;;;;;;;;;;19.50;99.90;;;;;;5045502;28;19983;-67
2023/09/26 09:05:18;;;;;;;;;;;19.30;99.90;;;;;;5047574;28;19928;-68
2023/09/26 09:07:43;;;;;;;;;;;19.40;99.90;;;;;;5046075;28;19955;-67
2023/09/26 09:10:12;;;;;;;;;;;19.70;99.90;;;;;;5029788;28;20392;-67
2023/09/26 09:12:40;;;;;;;;;;;19.80;99.90;;;;;;5079965;28;19981;-66
2023/09/26 09:15:28;;;;;;;;;;;19.90;99.90;;;;;;5045601;28;19974;-67
2023/09/26 09:17:53;;;;;;;;;;;20.00;95.90;;;;;;5080495;28;20002;-66
2023/09/26 09:20:33;;;;;;;;;;;19.80;82.30;;;;;;5045551;28;20506;-67
2023/09/26 09:23:02;;;;;;;;;;;19.80;92.10;;;;;;5047740;28;19925;-66
2023/09/26 09:25:38;;;;;;;;;;;20.00;99.90;;;;;;5047966;28;20024;-66
2023/09/26 09:28:05;;;;;;;;;;;20.00;97.60;;;;;;5071775;28;19928;-67
2023/09/26 09:30:43;;;;;;;;;;;20.20;97.50;;;;;;5047869;28;19924;-67
2023/09/26 09:33:09;;;;;;;;;;;20.20;88.90;;;;;;5047968;28;19929;-67
2023/09/26 09:35:36;;;;;;;;;;;20.30;97.90;;;;;;5047294;28;19933;-67
2023/09/26 09:38:02;;;;;;;;;;;20.70;99.90;;;;;;5047986;28;20171;-66
2023/09/26 09:40:28;;;;;;;;;;;21.00;75.90;;;;;;5047343;28;20239;-67
2023/09/26 09:42:54;;;;;;;;;;;21.50;50.40;;;;;;5048531;28;19924;-66
2023/09/26 09:45:19;;;;;;;;;;;21.50;43.70;;;;;;5065936;28;20092;-66
2023/09/26 09:47:47;;;;;;;;;;;21.30;37.20;;;;;;5066162;28;20318;-67
2023/09/26 09:50:13;;;;;;;;;;;21.30;15.10;;;;;;5049274;28;19924;-66
2023/09/26 09:52:44;;;;;;;;;;;21.20;38.50;;;;;;5041493;28;20141;-66
2023/09/26 09:55:19;;;;;;;;;;;21.20;15.60;;;;;;5051121;28;19932;-67
2023/09/26 09:57:45;;;;;;;;;;;21.20;45.40;;;;;;5049227;28;19928;-67
2023/09/26 10:00:12;;;;;;;;;;;21.00;27.30;;;;;;5027288;28;19936;-67
2023/09/26 10:02:38;;;;;;;;;;;21.00;18.70;;;;;;5051232;28;19924;-67
2023/09/26 10:05:06;;;;;;;;;;;21.60;36.40;;;;;;5049297;28;19930;-67
2023/09/26 10:07:32;;;;;;;;;;;22.20;1.60;;;;;;5082812;28;19935;-66
2023/09/26 10:09:58;;;;;;;;;;;22.70;1.00;;;;;;5049438;28;20094;-66
2023/09/26 10:12:25;;;;;;;;;;;23.00;1.00;;;;;;5048438;28;20015;-66
2023/09/26 10:14:50;;;;;;;;;;;23.40;1.00;;;;;;5068393;28;20655;-65
2023/09/26 10:17:17;;;;;;;;;;;23.60;1.00;;;;;;5035387;28;19977;-67
2023/09/26 10:19:43;;;;;;;;;;;23.20;1.00;;;;;;5067636;28;19928;-66
2023/09/26 10:22:19;;;;;;;;;;;23.10;1.00;;;;;;5051742;28;20353;-66
2023/09/26 10:24:45;;;;;;;;;;;22.90;1.00;;;;;;5053011;28;20120;-66
2023/09/26 10:27:11;;;;;;;;;;;22.80;1.00;;;;;;5085392;28;20419;-67
2023/09/26 10:29:37;;;;;;;;;;;22.80;1.00;;;;;;5085084;28;19924;-67
2023/09/26 10:32:04;;;;;;;;;;;22.80;1.00;;;;;;5068091;28;20330;-67
2023/09/26 10:34:32;;;;;;;;;;;22.60;1.00;;;;;;5051753;28;19971;-67
2023/09/26 10:36:58;;;;;;;;;;;22.30;1.00;;;;;;5052965;28;19924;-67
2023/09/26 10:39:33;;;;;;;;;;;22.20;1.00;;;;;;5084548;28;20021;-67
2023/09/26 10:42:11;;;;;;;;;;;22.00;1.00;;;;;;5051139;28;20247;-67
2023/09/26 10:44:38;;;;;;;;;;;22.00;1.00;;;;;;5085554;28;20027;-66
2023/09/26 10:47:04;;;;;;;;;;;21.70;1.00;;;;;;5050993;28;19932;-66
2023/09/26 10:49:33;;;;;;;;;;;21.70;1.00;;;;;;5050787;28;19932;-67
2023/09/26 10:52:01;;;;;;;;;;;21.70;1.00;;;;;;5051081;28;19980;-67
2023/09/26 10:54:30;;;;;;;;;;;21.80;1.00;;;;;;5049796;28;20019;-66
2023/09/26 10:56:58;;;;;;;;;;;21.80;1.00;;;;;;5068274;28;19925;-67
2023/09/26 10:59:27;;;;;;;;;;;21.80;1.00;;;;;;5051043;28;19924;-67
2023/09/26 11:01:53;;;;;;;;;;;21.70;1.00;;;;;;5052310;28;20176;-66
2023/09/26 11:04:19;;;;;;;;;;;21.50;1.00;;;;;;5050719;28;20482;-67
2023/09/26 11:06:45;;;;;;;;;;;21.40;1.00;;;;;;5084414;28;19936;-66
2023/09/26 11:09:12;;;;;;;;;;;21.50;1.00;;;;;;5052123;28;20462;-67
2023/09/26 11:11:38;;;;;;;;;;;21.50;1.00;;;;;;5084500;28;19928;-67
2023/09/26 11:14:04;;;;;;;;;;;21.70;1.00;;;;;;5050520;28;19989;-68
2023/09/26 11:16:29;;;;;;;;;;;21.90;1.00;;;;;;5050729;28;19936;-67
2023/09/26 11:18:55;;;;;;;;;;;22.00;1.00;;;;;;5050128;28;19939;-67
2023/09/26 11:21:21;;;;;;;;;;;22.00;1.00;;;;;;5083225;28;20168;-66
2023/09/26 11:23:47;;;;;;;;;;;21.90;1.00;;;;;;5050741;28;20264;-67
2023/09/26 11:26:12;;;;;;;;;;;21.90;1.00;;;;;;5083881;28;20406;-68
2023/09/26 11:28:39;;;;;;;;;;;21.90;1.00;;;;;;5049427;28;19978;-67
2023/09/26 11:31:05;;;;;;;;;;;21.70;1.00;;;;;;5050094;28;19928;-67
2023/09/26 11:33:31;;;;;;;;;;;21.60;1.00;;;;;;5084059;28;20160;-67
2023/09/26 11:35:56;;;;;;;;;;;21.70;1.00;;;;;;5082940;28;20519;-67
2023/09/26 11:38:22;;;;;;;;;;;21.80;1.00;;;;;;5049833;28;19924;-67
2023/09/26 11:40:47;;;;;;;;;;;21.70;1.00;;;;;;5084544;28;20434;-67
2023/09/26 11:43:13;;;;;;;;;;;21.80;1.00;;;;;;5033760;28;19951;-67
2023/09/26 11:45:39;;;;;;;;;;;21.70;1.00;;;;;;5051487;28;20037;-67
2023/09/26 11:48:07;;;;;;;;;;;21.60;1.00;;;;;;5083694;28;20686;-67
2023/09/26 11:50:35;;;;;;;;;;;21.60;1.00;;;;;;5049668;28;19924;-68
2023/09/26 11:53:01;;;;;;;;;;;21.50;1.00;;;;;;5084288;28;20064;-67
2023/09/26 11:55:27;;;;;;;;;;;21.40;1.00;;;;;;5049955;28;20543;-66
2023/09/26 11:57:53;;;;;;;;;;;21.50;1.00;;;;;;5083458;28;20015;-66
2023/09/26 12:00:20;;;;;;;;;;;21.40;1.00;;;;;;5051583;28;19924;-66
2023/09/26 12:02:47;;;;;;;;;;;21.40;1.00;;;;;;5051662;28;19925;-67
2023/09/26 12:05:13;;;;;;;;;;;21.50;1.00;;;;;;5050250;28;20410;-66
2023/09/26 12:07:39;;;;;;;;;;;21.60;1.00;;;;;;5051425;28;20007;-66
2023/09/26 12:10:06;;;;;;;;;;;21.70;1.00;;;;;;5050118;28;19928;-65
2023/09/26 12:12:31;;;;;;;;;;;21.70;1.00;;;;;;5049335;28;19928;-66
2023/09/26 12:15:16;;;;;;;;;;;21.80;1.00;;;;;;5049623;28;20287;-64
2023/09/26 12:17:41;;;;;;;;;;;21.80;1.00;;;;;;5083161;28;20025;-65
2023/09/26 12:20:08;;;;;;;;;;;21.50;1.00;;;;;;5066172;28;20039;-66
2023/09/26 12:22:33;;;;;;;;;;;21.50;1.00;;;;;;5050901;28;20025;-66
2023/09/26 12:24:59;;;;;;;;;;;21.60;1.00;;;;;;5065487;28;20083;-64
2023/09/26 12:27:25;;;;;;;;;;;21.90;1.00;;;;;;5049565;28;20195;-65
2023/09/26 12:29:50;;;;;;;;;;;22.20;1.00;;;;;;5049590;28;20115;-63
2023/09/26 12:32:16;;;;;;;;;;;22.60;1.00;;;;;;5051212;28;19978;-64
2023/09/26 12:34:42;;;;;;;;;;;23.00;1.00;;;;;;5050528;28;19928;-65
2023/09/26 12:37:08;;;;;;;;;;;23.10;1.00;;;;;;5068345;28;19925;-64
2023/09/26 12:39:33;;;;;;;;;;;23.10;1.00;;;;;;5051661;28;20011;-65
2023/09/26 12:41:59;;;;;;;;;;;23.10;1.00;;;;;;5049996;28;19920;-64
2023/09/26 12:44:25;;;;;;;;;;;23.20;1.00;;;;;;5066924;28;20069;-64
2023/09/26 12:46:50;;;;;;;;;;;24.00;1.00;;;;;;5052054;28;20440;-64
2023/09/26 12:49:17;;;;;;;;;;;24.00;1.00;;;;;;5066935;28;19968;-64
2023/09/26 12:51:43;;;;;;;;;;;23.80;1.00;;;;;;5067688;28;19924;-64
2023/09/26 12:54:09;;;;;;;;;;;23.80;1.00;;;;;;5050235;28;19929;-65
2023/09/26 12:56:34;;;;;;;;;;;23.90;1.00;;;;;;5032357;28;20309;-65
2023/09/26 12:59:00;;;;;;;;;;;24.40;1.00;;;;;;5050476;28;20019;-65
2023/09/26 13:01:25;;;;;;;;;;;24.50;1.00;;;;;;5064912;28;19924;-65
2023/09/26 13:03:51;;;;;;;;;;;24.20;1.00;;;;;;5050760;28;20000;-64
2023/09/26 13:06:17;;;;;;;;;;;23.90;1.00;;;;;;5049229;28;19992;-63
2023/09/26 13:08:42;;;;;;;;;;;23.50;1.00;;;;;;5049101;28;19924;-63
2023/09/26 13:11:08;;;;;;;;;;;23.10;1.00;;;;;;5082037;28;19924;-64
2023/09/26 13:13:33;;;;;;;;;;;22.90;1.00;;;;;;5049127;28;20113;-64
2023/09/26 13:16:00;;;;;;;;;;;22.80;1.00;;;;;;5081801;28;20325;-64
2023/09/26 13:18:25;;;;;;;;;;;23.00;1.00;;;;;;5051035;28;20023;-63
2023/09/26 13:20:51;;;;;;;;;;;23.10;1.00;;;;;;5054663;28;19931;-64
2023/09/26 13:23:16;;;;;;;;;;;23.10;1.00;;;;;;5069367;28;20421;-64
2023/09/26 13:25:42;;;;;;;;;;;23.20;1.00;;;;;;5054382;28;19986;-65
2023/09/26 13:28:11;;;;;;;;;;;24.00;1.00;;;;;;5053900;28;19935;-64
2023/09/26 13:30:37;;;;;;;;;;;25.10;1.00;;;;;;5052527;28;20393;-64
2023/09/26 13:33:02;;;;;;;;;;;26.10;1.00;;;;;;5087010;28;19924;-64
2023/09/26 13:35:29;;;;;;;;;;;26.10;1.00;;;;;;5053604;28;20118;-65
2023/09/26 13:37:55;;;;;;;;;;;25.30;1.00;;;;;;5087845;28;20029;-64
2023/09/26 13:40:20;;;;;;;;;;;25.00;1.00;;;;;;5087387;28;20153;-64
2023/09/26 13:42:46;;;;;;;;;;;25.00;1.00;;;;;;5036741;28;19985;-64
2023/09/26 13:45:12;;;;;;;;;;;25.20;1.00;;;;;;5053445;28;20440;-65
2023/09/26 13:47:37;;;;;;;;;;;25.20;1.00;;;;;;5054712;28;20188;-64
2023/09/26 13:50:03;;;;;;;;;;;25.40;1.00;;;;;;5053564;28;20569;-64
2023/09/26 13:52:30;;;;;;;;;;;25.60;1.00;;;;;;5053677;28;20555;-65
2023/09/26 13:54:56;;;;;;;;;;;25.50;1.00;;;;;;5054685;28;19940;-64
2023/09/26 13:57:22;;;;;;;;;;;25.60;1.00;;;;;;5086823;28;19924;-64
2023/09/26 13:59:49;;;;;;;;;;;25.90;1.00;;;;;;5052507;28;19924;-64
2023/09/26 14:02:15;;;;;;;;;;;26.30;1.00;;;;;;5053150;28;19951;-64
2023/09/26 14:04:42;;;;;;;;;;;26.00;1.00;;;;;;5051938;28;20214;-64
2023/09/26 14:07:09;;;;;;;;;;;25.60;1.00;;;;;;5052261;28;19924;-64
2023/09/26 14:09:35;;;;;;;;;;;24.70;1.00;;;;;;5053301;28;19929;-65
2023/09/26 14:12:03;;;;;;;;;;;24.00;1.00;;;;;;5033641;28;19924;-64
2023/09/26 14:14:29;;;;;;;;;;;23.30;1.00;;;;;;5053640;28;19928;-64
2023/09/26 14:16:55;;;;;;;;;;;23.10;1.00;;;;;;5054997;28;20416;-64